createdAt,value
2019-02-08T00:00:25.540Z,8.67
2019-02-08T00:03:02.318Z,8.83
2019-02-08T00:05:36.043Z,7.47
2019-02-08T00:08:17.484Z,7.20
2019-02-08T00:10:53.268Z,5.70
2019-02-08T00:13:27.039Z,7.27
2019-02-08T00:16:05.590Z,8.80
2019-02-08T00:18:41.266Z,8.43
2019-02-08T00:21:15.234Z,9.03
2019-02-08T00:23:48.889Z,8.57
2019-02-08T00:26:29.762Z,9.17
2019-02-08T00:29:03.412Z,8.10
2019-02-08T00:31:37.173Z,8.73
2019-02-08T00:34:10.898Z,7.10
2019-02-08T00:36:44.679Z,8.37
2019-02-08T00:39:18.333Z,7.83
2019-02-08T00:41:52.386Z,6.97
2019-02-08T00:44:26.060Z,7.23
2019-02-08T00:47:06.040Z,7.43
2019-02-08T00:49:51.855Z,6.70
2019-02-08T00:52:25.608Z,7.47
2019-02-08T00:54:59.267Z,6.93
2019-02-08T00:57:41.277Z,7.17
2019-02-08T01:00:16.806Z,6.60
2019-02-08T01:02:54.822Z,5.57
2019-02-08T01:05:29.735Z,5.00
2019-02-08T01:08:03.627Z,6.60
2019-02-08T01:10:37.384Z,6.03
2019-02-08T01:13:18.456Z,4.90
2019-02-08T01:15:52.230Z,5.13
2019-02-08T01:18:26.269Z,6.33
2019-02-08T01:21:06.209Z,6.03
2019-02-08T01:23:41.806Z,5.20
2019-02-08T01:26:15.365Z,5.57
2019-02-08T01:28:49.134Z,5.87
2019-02-08T01:31:22.872Z,5.57
2019-02-08T01:33:56.635Z,6.00
2019-02-08T01:36:30.400Z,5.97
2019-02-08T01:39:06.637Z,5.90
2019-02-08T01:41:40.335Z,5.10
2019-02-08T01:44:14.081Z,4.37
2019-02-08T01:46:47.720Z,5.53
2019-02-08T01:49:21.453Z,5.20
2019-02-08T01:51:58.704Z,3.63
2019-02-08T01:54:32.360Z,4.57
2019-02-08T01:57:06.136Z,4.40
2019-02-08T01:59:39.811Z,3.83
2019-02-08T02:02:13.577Z,4.60
2019-02-08T02:04:50.685Z,3.53
2019-02-08T02:07:39.449Z,3.53
2019-02-08T02:10:18.965Z,3.33
2019-02-08T02:12:52.730Z,3.47
2019-02-08T02:15:35.776Z,3.53
2019-02-08T02:18:17.488Z,4.53
2019-02-08T02:20:51.466Z,3.90
2019-02-08T02:23:28.126Z,3.37
2019-02-08T02:26:05.200Z,3.53
2019-02-08T02:28:42.560Z,2.60
2019-02-08T02:31:16.285Z,3.43
2019-02-08T02:33:50.037Z,3.43
2019-02-08T02:36:23.794Z,3.50
2019-02-08T02:38:57.420Z,4.07
2019-02-08T02:41:31.110Z,3.40
2019-02-08T02:44:07.984Z,3.80
2019-02-08T02:46:41.746Z,3.90
2019-02-08T02:49:24.652Z,3.47
2019-02-08T02:51:58.334Z,3.53
2019-02-08T02:54:32.000Z,3.77
2019-02-08T02:57:05.757Z,3.70
2019-02-08T02:59:42.441Z,3.53
2019-02-08T03:02:28.731Z,3.03
2019-02-08T03:05:07.067Z,3.20
2019-02-08T03:07:40.819Z,4.03
2019-02-08T03:10:17.525Z,3.87
2019-02-08T03:12:51.562Z,3.47
2019-02-08T03:15:26.919Z,3.80
2019-02-08T03:18:00.612Z,3.20
2019-02-08T03:20:34.478Z,3.57
2019-02-08T03:23:08.227Z,4.07
2019-02-08T03:25:41.972Z,3.60
2019-02-08T03:28:15.737Z,3.90
2019-02-08T03:30:51.052Z,4.03
2019-02-08T03:33:36.824Z,4.67
2019-02-08T03:36:10.415Z,3.87
2019-02-08T03:38:53.287Z,3.70
2019-02-08T03:41:27.018Z,4.30
2019-02-08T03:44:07.043Z,4.33
2019-02-08T03:46:40.792Z,4.37
2019-02-08T03:49:14.540Z,4.63
2019-02-08T03:51:48.211Z,4.77
2019-02-08T03:54:21.992Z,3.80
2019-02-08T03:56:58.863Z,4.23
2019-02-08T03:59:32.623Z,4.30
2019-02-08T04:02:06.375Z,4.40
2019-02-08T04:04:47.692Z,4.37
2019-02-08T04:07:21.460Z,4.30
2019-02-08T04:09:58.222Z,5.00
2019-02-08T04:12:32.576Z,5.03
2019-02-08T04:15:09.315Z,5.13
2019-02-08T04:17:43.331Z,5.17
2019-02-08T04:20:22.894Z,4.63
2019-02-08T04:23:08.992Z,4.90
2019-02-08T04:25:42.777Z,5.53
2019-02-08T04:28:16.540Z,5.70
2019-02-08T04:30:50.459Z,5.57
2019-02-08T04:33:24.138Z,5.40
2019-02-08T04:35:57.726Z,5.97
2019-02-08T04:38:31.396Z,6.00
2019-02-08T04:41:06.973Z,6.50
2019-02-08T04:43:40.662Z,6.03
2019-02-08T04:46:19.614Z,7.07
2019-02-08T04:48:59.426Z,7.17
2019-02-08T04:51:42.478Z,7.97
2019-02-08T04:54:19.794Z,7.30
2019-02-08T04:56:53.447Z,6.10
2019-02-08T04:59:30.228Z,7.30
2019-02-08T05:02:04.341Z,7.90
2019-02-08T05:04:41.133Z,8.70
2019-02-08T05:07:14.780Z,9.10
2019-02-08T05:09:48.470Z,6.73
2019-02-08T05:12:26.502Z,9.37
2019-02-08T05:15:00.278Z,9.87
2019-02-08T05:17:33.950Z,10.60
2019-02-08T05:20:22.856Z,9.77
2019-02-08T05:22:56.874Z,9.30
2019-02-08T05:25:30.637Z,8.27
2019-02-08T05:28:06.681Z,10.83
2019-02-08T05:30:40.347Z,10.47
2019-02-08T05:33:14.022Z,10.60
2019-02-08T05:35:53.850Z,11.00
2019-02-08T05:38:27.603Z,10.90
2019-02-08T05:41:01.330Z,10.43
2019-02-08T05:43:35.294Z,10.90
2019-02-08T05:46:09.039Z,11.90
2019-02-08T05:48:42.664Z,9.97
2019-02-08T05:51:31.083Z,11.67
2019-02-08T05:54:09.161Z,11.60
2019-02-08T05:56:43.300Z,11.53
2019-02-08T05:59:17.083Z,12.23
2019-02-08T06:01:50.666Z,10.07
2019-02-08T06:04:28.464Z,10.47
2019-02-08T06:07:02.117Z,11.30
2019-02-08T06:09:35.883Z,11.67
2019-02-08T06:12:10.572Z,11.33
2019-02-08T06:14:44.256Z,9.73
2019-02-08T06:17:17.918Z,9.87
2019-02-08T06:20:09.250Z,10.83
2019-02-08T06:22:42.972Z,10.10
2019-02-08T06:25:20.524Z,10.07
2019-02-08T06:27:54.219Z,11.40
2019-02-08T06:30:31.632Z,10.83
2019-02-08T06:33:09.135Z,11.60
2019-02-08T06:35:42.897Z,10.20
2019-02-08T06:38:17.803Z,10.93
2019-02-08T06:40:51.803Z,11.27
2019-02-08T06:43:25.421Z,10.60
2019-02-08T06:45:59.232Z,10.80
2019-02-08T06:48:32.963Z,12.90
2019-02-08T06:51:12.614Z,11.07
2019-02-08T06:53:46.406Z,11.53
2019-02-08T06:56:43.829Z,10.03
2019-02-08T06:59:19.543Z,11.17
2019-02-08T07:02:07.505Z,11.03
2019-02-08T07:04:48.777Z,11.10
2019-02-08T07:07:27.145Z,11.10
2019-02-08T07:13:14.671Z,11.60
2019-02-08T07:15:52.893Z,11.67
2019-02-08T07:18:28.236Z,11.07
2019-02-08T07:21:06.979Z,10.97
2019-02-08T07:23:42.400Z,9.77
2019-02-08T07:26:18.076Z,10.07
2019-02-08T07:28:53.824Z,10.87
2019-02-08T07:31:52.984Z,9.27
2019-02-08T07:34:28.400Z,11.50
2019-02-08T07:37:07.062Z,10.37
2019-02-08T07:40:10.200Z,9.87
2019-02-08T07:42:55.293Z,10.13
2019-02-08T07:45:34.963Z,10.50
2019-02-08T07:48:10.379Z,9.20
2019-02-08T07:51:04.076Z,10.70
2019-02-08T07:53:45.068Z,8.63
2019-02-08T07:56:22.151Z,10.17
2019-02-08T07:58:57.564Z,9.70
2019-02-08T08:01:38.856Z,10.57
2019-02-08T08:04:17.832Z,10.20
2019-02-08T08:06:53.139Z,10.13
2019-02-08T08:09:43.748Z,9.30
2019-02-08T08:12:23.002Z,9.13
2019-02-08T08:15:04.714Z,9.63
2019-02-08T08:17:46.412Z,7.73
2019-02-08T08:20:39.999Z,8.30
2019-02-08T08:23:34.102Z,7.93
2019-02-08T08:26:16.295Z,7.60
2019-02-08T08:29:04.060Z,7.60
2019-02-08T08:32:00.738Z,6.10
2019-02-08T08:34:49.226Z,7.20
2019-02-08T08:37:31.708Z,9.90
2019-02-08T08:40:26.853Z,8.07
2019-02-08T08:43:15.739Z,7.90
2019-02-08T08:46:04.592Z,8.33
2019-02-08T08:49:02.747Z,6.77
2019-02-08T08:51:55.916Z,7.93
2019-02-08T08:54:44.415Z,6.93
2019-02-08T08:57:46.596Z,6.97
2019-02-08T09:00:35.691Z,6.90
2019-02-08T09:03:32.127Z,6.40
2019-02-08T09:06:37.325Z,6.20
2019-02-08T09:09:43.619Z,6.00
2019-02-08T09:12:22.895Z,5.70
2019-02-08T09:15:28.189Z,6.70
2019-02-08T09:18:29.447Z,6.90
2019-02-08T09:21:08.822Z,7.13
2019-02-08T09:24:03.579Z,5.07
2019-02-08T09:26:51.944Z,3.77
2019-02-08T09:29:53.337Z,3.90
2019-02-08T09:32:48.027Z,4.47
2019-02-08T09:35:39.011Z,3.93
2019-02-08T09:38:41.111Z,4.07
2019-02-08T09:41:41.787Z,4.57
2019-02-08T09:44:56.411Z,3.23
2019-02-08T09:47:36.127Z,3.73
2019-02-08T09:50:39.918Z,4.70
2019-02-08T09:53:26.079Z,3.93
2019-02-08T09:56:19.069Z,4.07
2019-02-08T09:59:27.462Z,4.20
2019-02-08T10:02:20.721Z,3.77
2019-02-08T10:05:24.648Z,4.20
2019-02-08T10:08:07.379Z,4.37
2019-02-08T10:10:53.035Z,4.77
2019-02-08T10:14:04.191Z,5.10
2019-02-08T10:17:10.989Z,3.87
2019-02-08T10:20:33.578Z,4.40
2019-02-08T10:23:39.225Z,4.80
2019-02-08T10:26:20.138Z,4.43
2019-02-08T10:29:16.914Z,4.20
2019-02-08T10:32:17.588Z,4.63
2019-02-08T10:35:13.256Z,4.47
2019-02-08T10:38:15.610Z,4.30
2019-02-08T10:40:58.054Z,4.67
2019-02-08T10:43:44.357Z,5.53
2019-02-08T10:46:54.344Z,3.87
2019-02-08T10:49:57.034Z,5.43
2019-02-08T10:52:48.630Z,5.00
2019-02-08T10:55:54.084Z,5.37
2019-02-08T10:59:04.224Z,4.20
2019-02-08T11:02:15.947Z,4.57
2019-02-08T11:05:11.609Z,4.40
2019-02-08T11:08:21.593Z,3.47
2019-02-08T11:11:01.097Z,4.37
2019-02-08T11:13:51.202Z,3.83
2019-02-08T11:17:05.238Z,3.17
2019-02-08T11:19:37.805Z,4.00
2019-02-08T11:22:11.470Z,4.03
2019-02-08T11:24:45.143Z,3.40
2019-02-08T11:27:19.190Z,3.73
2019-02-08T11:29:53.024Z,3.83
2019-02-08T11:32:42.499Z,3.40
2019-02-08T11:35:02.149Z,3.60
2019-02-08T11:37:35.943Z,3.87
2019-02-08T11:40:21.427Z,3.07
2019-02-08T11:42:55.190Z,2.37
2019-02-08T11:45:32.734Z,2.73
2019-02-08T11:48:06.481Z,3.20
2019-02-08T11:50:40.167Z,3.10
2019-02-08T11:53:13.920Z,3.27
2019-02-08T11:55:59.659Z,3.07
2019-02-08T11:58:33.416Z,3.17
2019-02-08T12:01:07.178Z,2.97
2019-02-08T12:03:56.645Z,3.27
2019-02-08T12:06:30.292Z,3.30
2019-02-08T12:09:07.013Z,2.70
2019-02-08T12:11:40.679Z,3.20
2019-02-08T12:14:14.431Z,3.03
2019-02-08T12:16:51.139Z,3.33
2019-02-08T12:19:24.851Z,2.60
2019-02-08T12:21:58.569Z,3.47
2019-02-08T12:24:32.300Z,3.10
2019-02-08T12:27:06.127Z,3.20
2019-02-08T12:29:39.863Z,3.73
2019-02-08T12:32:13.564Z,3.37
2019-02-08T12:34:47.224Z,3.73
2019-02-08T12:37:20.920Z,3.37
2019-02-08T12:42:56.070Z,3.50
2019-02-08T12:45:32.762Z,2.90
2019-02-08T12:48:06.515Z,3.50
2019-02-08T12:50:40.235Z,3.57
2019-02-08T12:53:21.243Z,3.23
2019-02-08T12:55:54.898Z,3.07
2019-02-08T12:58:28.523Z,3.20
2019-02-08T13:01:02.282Z,3.10
2019-02-08T13:03:35.928Z,3.20
2019-02-08T13:06:09.853Z,3.70
2019-02-08T13:08:55.515Z,2.60
2019-02-08T13:11:29.247Z,2.97
2019-02-08T13:14:09.016Z,3.83
2019-02-08T13:16:42.667Z,2.93
2019-02-08T13:19:31.372Z,3.80
2019-02-08T13:22:05.287Z,3.70
2019-02-08T13:24:39.035Z,3.20
2019-02-08T13:27:12.724Z,3.27
2019-02-08T13:29:46.384Z,3.33
2019-02-08T13:32:20.068Z,3.37
2019-02-08T13:35:06.370Z,3.17
2019-02-08T13:37:40.131Z,3.20
2019-02-08T13:40:24.880Z,3.30
2019-02-08T13:42:58.612Z,2.80
2019-02-08T13:45:32.375Z,3.17
2019-02-08T13:48:06.342Z,3.37
2019-02-08T13:50:40.076Z,2.80
2019-02-08T13:53:13.741Z,3.40
2019-02-08T13:55:48.714Z,3.70
2019-02-08T13:58:22.544Z,3.53
2019-02-08T14:00:56.339Z,3.20
2019-02-08T14:03:29.918Z,3.10
2019-02-08T14:06:05.839Z,3.00
2019-02-08T14:08:39.610Z,3.13
2019-02-08T14:11:13.308Z,3.03
2019-02-08T14:13:47.012Z,2.90
2019-02-08T14:16:20.958Z,2.83
2019-02-08T14:18:54.706Z,2.70
2019-02-08T14:21:28.399Z,2.57
2019-02-08T14:24:02.134Z,3.13
2019-02-08T14:26:38.802Z,3.10
2019-02-08T14:29:12.491Z,2.57
2019-02-08T14:31:58.279Z,2.40
2019-02-08T14:34:32.033Z,2.70
2019-02-08T14:37:05.856Z,2.10
2019-02-08T14:39:39.612Z,2.57
2019-02-08T14:42:13.368Z,2.07
2019-02-08T14:44:47.116Z,2.07
2019-02-08T14:47:23.767Z,2.33
2019-02-08T14:49:57.390Z,2.60
2019-02-08T14:52:31.119Z,1.87
2019-02-08T14:55:20.305Z,2.30
2019-02-08T14:57:56.987Z,2.23
2019-02-08T15:00:30.750Z,2.20
2019-02-08T15:03:04.879Z,1.97
2019-02-08T15:05:38.597Z,2.00
2019-02-08T15:08:12.180Z,2.20
2019-02-08T15:10:51.221Z,2.53
2019-02-08T15:13:24.879Z,2.10
2019-02-08T15:15:58.579Z,1.80
2019-02-08T15:18:32.549Z,2.30
2019-02-08T15:21:06.169Z,1.97
2019-02-08T15:23:39.773Z,2.03
2019-02-08T15:26:13.435Z,1.80
2019-02-08T15:28:47.198Z,1.63
2019-02-08T15:31:20.855Z,2.20
2019-02-08T15:33:57.601Z,1.93
2019-02-08T15:36:31.322Z,2.27
2019-02-08T15:39:08.006Z,1.93
2019-02-08T15:41:41.735Z,2.10
2019-02-08T15:44:15.480Z,2.40
2019-02-08T15:46:49.072Z,2.07
2019-02-08T15:49:30.545Z,2.00
2019-02-08T15:52:04.296Z,2.00
2019-02-08T15:54:38.090Z,2.70
2019-02-08T15:57:11.776Z,2.10
2019-02-08T15:59:49.262Z,2.30
2019-02-08T16:02:23.342Z,2.20
2019-02-08T16:04:57.014Z,2.13
2019-02-08T16:07:30.830Z,2.27
2019-02-08T16:10:07.458Z,2.00
2019-02-08T16:12:41.182Z,2.10
2019-02-08T16:15:26.755Z,2.20
2019-02-08T16:18:00.483Z,2.30
2019-02-08T16:20:34.240Z,2.10
2019-02-08T16:23:11.660Z,2.00
2019-02-08T16:25:45.346Z,2.40
2019-02-08T16:28:28.161Z,1.97
2019-02-08T16:31:01.919Z,1.87
2019-02-08T16:33:35.518Z,2.13
2019-02-08T16:36:09.640Z,1.97
2019-02-08T16:38:43.358Z,2.13
2019-02-08T16:41:17.044Z,1.93
2019-02-08T16:43:51.169Z,1.83
2019-02-08T16:46:24.979Z,2.20
2019-02-08T16:48:58.601Z,2.33
2019-02-08T16:51:32.259Z,1.97
2019-02-08T16:54:06.225Z,2.07
2019-02-08T16:56:39.949Z,2.10
2019-02-08T16:59:31.755Z,2.10
2019-02-08T17:02:05.894Z,2.63
2019-02-08T17:04:39.662Z,1.90
2019-02-08T17:07:14.433Z,2.10
2019-02-08T17:09:48.101Z,2.27
2019-02-08T17:12:21.793Z,2.40
2019-02-08T17:14:55.384Z,2.20
2019-02-08T17:17:32.055Z,1.80
2019-02-08T17:20:11.672Z,2.77
2019-02-08T17:22:45.732Z,2.53
2019-02-08T17:25:25.711Z,2.20
2019-02-08T17:27:59.791Z,2.40
2019-02-08T17:30:33.704Z,2.70
2019-02-08T17:33:13.816Z,2.70
2019-02-08T17:35:54.331Z,3.03
2019-02-08T17:38:32.703Z,2.80
2019-02-08T17:41:16.492Z,2.97
2019-02-08T17:43:50.175Z,3.13
2019-02-08T17:46:27.545Z,2.47
2019-02-08T17:49:03.205Z,2.53
2019-02-08T17:51:37.028Z,3.40
2019-02-08T17:54:10.727Z,2.73
2019-02-08T17:56:44.340Z,3.10
2019-02-08T17:59:18.404Z,3.10
2019-02-08T18:01:52.145Z,3.83
2019-02-08T18:04:25.822Z,3.70
2019-02-08T18:07:06.900Z,3.60
2019-02-08T18:09:51.203Z,3.37
2019-02-08T18:12:32.127Z,3.47
2019-02-08T18:15:00.185Z,3.30
2019-02-08T18:17:33.721Z,3.50
2019-02-08T18:20:11.387Z,3.57
2019-02-08T18:22:45.008Z,3.63
2019-02-08T18:25:21.427Z,3.47
2019-02-08T18:27:55.088Z,3.40
2019-02-08T18:30:32.433Z,3.77
2019-02-08T18:33:06.252Z,4.27
2019-02-08T18:35:44.703Z,3.73
2019-02-08T18:38:18.361Z,3.63
2019-02-08T18:40:52.125Z,3.00
2019-02-08T18:43:25.783Z,2.83
2019-02-08T18:46:03.279Z,3.50
2019-02-08T18:48:36.910Z,4.20
2019-02-08T18:51:23.578Z,4.13
2019-02-08T18:53:57.524Z,4.67
2019-02-08T18:56:32.131Z,3.93
2019-02-08T18:59:05.888Z,4.30
2019-02-08T19:01:39.639Z,4.40
2019-02-08T19:04:18.426Z,4.43
2019-02-08T19:06:51.989Z,4.10
2019-02-08T19:09:28.357Z,4.63
2019-02-08T19:12:01.950Z,4.43
2019-02-08T19:14:35.572Z,4.50
2019-02-08T19:17:09.263Z,3.90
2019-02-08T19:19:43.015Z,4.10
2019-02-08T19:22:16.700Z,4.33
2019-02-08T19:24:52.247Z,4.23
2019-02-08T19:27:25.871Z,4.20
2019-02-08T19:30:21.179Z,3.73
2019-02-08T19:32:55.288Z,3.77
2019-02-08T19:35:32.958Z,4.10
2019-02-08T19:38:08.106Z,3.67
2019-02-08T19:40:46.596Z,4.20
2019-02-08T19:43:20.392Z,3.37
2019-02-08T19:45:54.028Z,4.00
2019-02-08T19:48:27.720Z,3.77
2019-02-08T19:51:01.784Z,3.70
2019-02-08T19:53:39.212Z,3.63
2019-02-08T19:56:12.898Z,3.80
2019-02-08T19:58:46.586Z,3.73
2019-02-08T20:01:20.170Z,3.07
2019-02-08T20:03:53.836Z,3.40
2019-02-08T20:06:27.419Z,3.03
2019-02-08T20:09:01.243Z,3.03
2019-02-08T20:11:35.016Z,3.37
2019-02-08T20:14:08.761Z,3.10
2019-02-08T20:16:42.432Z,3.13
2019-02-08T20:19:22.374Z,3.40
2019-02-08T20:21:56.126Z,2.60
2019-02-08T20:24:29.877Z,2.23
2019-02-08T20:27:03.603Z,2.50
2019-02-08T20:29:37.286Z,2.93
2019-02-08T20:32:11.001Z,2.50
2019-02-08T20:34:44.751Z,2.10
2019-02-08T20:37:18.414Z,2.83
2019-02-08T20:39:52.203Z,2.57
2019-02-08T20:42:57.765Z,2.33
2019-02-08T20:45:35.776Z,2.50
2019-02-08T20:48:18.083Z,2.27
2019-02-08T20:50:51.843Z,2.87
2019-02-08T20:53:26.485Z,2.00
2019-02-08T20:56:00.233Z,2.47
2019-02-08T20:58:34.771Z,2.33
2019-02-08T21:01:08.541Z,1.80
2019-02-08T21:03:48.434Z,2.17
2019-02-08T21:06:22.554Z,2.33
2019-02-08T21:08:56.475Z,2.00
2019-02-08T21:11:37.272Z,2.07
2019-02-08T21:14:11.135Z,1.80
2019-02-08T21:16:44.724Z,1.87
2019-02-08T21:19:18.333Z,1.93
2019-02-08T21:22:00.902Z,1.33
2019-02-08T21:24:34.511Z,1.83
2019-02-08T21:27:08.250Z,2.07
2019-02-08T21:29:41.870Z,2.10
2019-02-08T21:32:18.597Z,2.37
2019-02-08T21:34:52.218Z,1.87
2019-02-08T21:37:25.808Z,1.70
2019-02-08T21:39:59.482Z,1.67
2019-02-08T21:42:36.303Z,1.77
2019-02-08T21:45:13.232Z,1.83
2019-02-08T21:47:53.234Z,1.57
2019-02-08T21:50:27.692Z,1.53
2019-02-08T21:53:01.452Z,1.93
2019-02-08T21:55:35.369Z,1.67
2019-02-08T21:58:12.111Z,1.70
2019-02-08T22:00:45.834Z,2.03
2019-02-08T22:03:19.524Z,2.00
2019-02-08T22:05:59.270Z,1.80
2019-02-08T22:08:44.991Z,2.00
2019-02-08T22:11:18.578Z,1.57
2019-02-08T22:13:52.262Z,1.70
2019-02-08T22:16:25.936Z,1.70
2019-02-08T22:18:59.676Z,1.87
2019-02-08T22:21:33.404Z,1.13
2019-02-08T22:24:07.161Z,1.80
2019-02-08T22:26:40.844Z,1.70
2019-02-08T22:29:14.537Z,2.07
2019-02-08T22:31:51.340Z,1.40
2019-02-08T22:34:24.974Z,1.67
2019-02-08T22:36:58.628Z,1.97
2019-02-08T22:39:32.316Z,2.20
2019-02-08T22:42:05.959Z,2.30
2019-02-08T22:44:54.722Z,1.80
2019-02-08T22:47:28.477Z,1.80
2019-02-08T22:50:14.379Z,1.80
2019-02-08T22:52:47.989Z,1.70
2019-02-08T22:55:27.077Z,2.27
2019-02-08T22:58:00.925Z,1.80
2019-02-08T23:00:39.220Z,1.70
2019-02-08T23:03:16.909Z,1.70
2019-02-08T23:05:50.565Z,1.50
2019-02-08T23:08:24.340Z,1.30
2019-02-08T23:10:58.593Z,1.40
2019-02-08T23:13:32.659Z,1.63
2019-02-08T23:16:18.316Z,1.57
2019-02-08T23:18:51.992Z,1.37
2019-02-08T23:21:34.993Z,1.10
2019-02-08T23:24:09.047Z,1.37
2019-02-08T23:26:58.657Z,1.50
2019-02-08T23:29:32.344Z,1.43
2019-02-08T23:32:07.539Z,2.13
2019-02-08T23:34:41.291Z,1.80
2019-02-08T23:37:26.078Z,1.20
2019-02-08T23:40:07.263Z,1.40
2019-02-08T23:42:43.003Z,1.40
2019-02-08T23:45:20.651Z,1.27
2019-02-08T23:47:54.655Z,1.40
2019-02-08T23:50:28.446Z,1.17
2019-02-08T23:53:06.263Z,1.30
2019-02-08T23:55:40.019Z,1.57
2019-02-08T23:58:14.643Z,1.53
